Time;durP1;ratioP1;P1;durP2;ratioP2;P2;SDS_P1;SDS_P2;PMS_P1;PMS_P2;Temp;Humidity;BMP_temperature;BMP_pressure;BME280_temperature;BME280_humidity;BME280_pressure;Samples;Min_cycle;Max_cycle;Signal;HPM_P1;HPM_P2
2022/05/22 00:00:42;;;;;;;1.88;0.48;;;;;;;;;;380810;139;859897;-59
2022/05/22 00:01:43;;;;;;;6.53;0.37;;;;;;;;;;380825;138;859022;-59
2022/05/22 00:02:46;;;;;;;1.77;0.33;;;;;;;;;;380174;138;866497;-60
2022/05/22 00:03:47;;;;;;;0.75;0.33;;;;;;;;;;380011;139;865193;-60
2022/05/22 00:04:49;;;;;;;1.61;0.45;;;;;;;;;;379033;140;857098;-61
2022/05/22 00:05:50;;;;;;;1.12;0.36;;;;;;;;;;378538;139;857190;-59
2022/05/22 00:06:52;;;;;;;5.02;0.47;;;;;;;;;;381219;138;858099;-59
2022/05/22 00:07:54;;;;;;;1.59;0.69;;;;;;;;;;379834;139;859913;-60
2022/05/22 00:08:55;;;;;;;6.97;0.43;;;;;;;;;;380389;139;859927;-60
2022/05/22 00:09:57;;;;;;;1.89;0.26;;;;;;;;;;380326;138;859668;-60
2022/05/22 00:10:59;;;;;;;4.83;0.43;;;;;;;;;;379939;138;861055;-60
2022/05/22 00:12:01;;;;;;;5.00;0.30;;;;;;;;;;379644;138;857543;-61
2022/05/22 00:13:02;;;;;;;4.33;0.49;;;;;;;;;;379268;138;858900;-59
2022/05/22 00:14:04;;;;;;;1.74;0.29;;;;;;;;;;380842;139;864767;-60
2022/05/22 00:15:06;;;;;;;3.56;0.43;;;;;;;;;;380112;138;864663;-60
2022/05/22 00:17:28;;;;;;;2.60;0.63;;;;;;;;;;379809;138;864844;-62
2022/05/22 00:18:29;;;;;;;2.91;0.34;;;;;;;;;;380226;139;864934;-61
2022/05/22 00:19:31;;;;;;;1.20;0.30;;;;;;;;;;379515;139;865753;-60
2022/05/22 00:20:33;;;;;;;0.91;0.39;;;;;;;;;;380232;139;859583;-60
2022/05/22 00:21:35;;;;;;;4.31;0.40;;;;;;;;;;380549;138;858454;-61
2022/05/22 00:22:37;;;;;;;2.88;0.46;;;;;;;;;;378549;138;857780;-61
2022/05/22 00:23:38;;;;;;;3.53;0.39;;;;;;;;;;379944;138;864517;-60
2022/05/22 00:24:40;;;;;;;4.16;0.48;;;;;;;;;;380136;138;857565;-61
2022/05/22 00:25:41;;;;;;;2.32;0.30;;;;;;;;;;379849;139;857223;-60
2022/05/22 00:26:43;;;;;;;1.01;0.40;;;;;;;;;;379367;138;865563;-61
2022/05/22 00:27:45;;;;;;;8.47;0.50;;;;;;;;;;379382;138;865809;-59
2022/05/22 00:28:46;;;;;;;2.14;0.32;;;;;;;;;;380490;138;858711;-61
2022/05/22 00:29:48;;;;;;;3.95;0.31;;;;;;;;;;380728;138;864820;-61
2022/05/22 00:30:49;;;;;;;6.89;0.31;;;;;;;;;;372544;141;857314;-61
2022/05/22 00:31:51;;;;;;;3.73;0.60;;;;;;;;;;380308;138;863741;-60
2022/05/22 00:32:53;;;;;;;3.04;0.35;;;;;;;;;;380143;139;857193;-59
2022/05/22 00:33:54;;;;;;;4.66;0.37;;;;;;;;;;379820;138;864379;-60
2022/05/22 00:34:56;;;;;;;4.84;0.41;;;;;;;;;;379281;139;857045;-60
2022/05/22 00:35:57;;;;;;;5.75;0.79;;;;;;;;;;380507;138;857762;-59
2022/05/22 00:36:59;;;;;;;4.52;0.50;;;;;;;;;;379879;138;857485;-59
2022/05/22 00:38:01;;;;;;;1.28;0.44;;;;;;;;;;380446;138;864744;-60
2022/05/22 00:39:02;;;;;;;3.79;0.45;;;;;;;;;;380321;138;857304;-60
2022/05/22 00:40:05;;;;;;;5.22;1.66;;;;;;;;;;380505;139;858078;-60
2022/05/22 00:41:09;;;;;;;2.72;0.49;;;;;;;;;;379621;138;859388;-62
2022/05/22 00:42:12;;;;;;;7.18;1.30;;;;;;;;;;378144;139;860584;-60
2022/05/22 00:43:33;;;;;;;6.45;0.52;;;;;;;;;;373312;141;857248;-61
2022/05/22 00:44:34;;;;;;;4.30;1.04;;;;;;;;;;380881;138;865379;-60
2022/05/22 00:45:36;;;;;;;1.32;0.37;;;;;;;;;;380972;139;857208;-60
2022/05/22 00:46:37;;;;;;;6.80;0.46;;;;;;;;;;380873;138;860080;-60
2022/05/22 00:47:39;;;;;;;1.96;0.66;;;;;;;;;;378973;139;864511;-61
2022/05/22 00:48:42;;;;;;;2.80;0.52;;;;;;;;;;379940;139;857244;-59
2022/05/22 00:49:44;;;;;;;4.23;0.45;;;;;;;;;;380048;139;857152;-61
2022/05/22 00:50:46;;;;;;;2.64;0.44;;;;;;;;;;379748;138;859563;-61
2022/05/22 00:51:49;;;;;;;3.43;0.40;;;;;;;;;;379469;139;864935;-61
2022/05/22 00:52:53;;;;;;;6.69;1.36;;;;;;;;;;379424;138;857701;-60
2022/05/22 00:53:56;;;;;;;2.86;0.50;;;;;;;;;;378554;138;859190;-63
2022/05/22 00:54:59;;;;;;;4.57;1.11;;;;;;;;;;379286;139;858908;-59
2022/05/22 00:56:01;;;;;;;8.07;0.49;;;;;;;;;;379089;139;864824;-61
2022/05/22 00:57:08;;;;;;;5.08;0.53;;;;;;;;;;371209;142;857857;-60
2022/05/22 00:58:10;;;;;;;6.76;0.47;;;;;;;;;;379986;138;857613;-61
2022/05/22 00:59:12;;;;;;;3.37;0.41;;;;;;;;;;379398;139;857201;-60
2022/05/22 01:00:17;;;;;;;1.10;0.48;;;;;;;;;;379906;138;859530;-59
2022/05/22 01:01:18;;;;;;;2.05;0.49;;;;;;;;;;381228;138;860468;-59
2022/05/22 01:02:20;;;;;;;3.14;0.59;;;;;;;;;;380170;138;864694;-60
2022/05/22 01:03:28;;;;;;;3.69;0.56;;;;;;;;;;379749;139;865425;-59
2022/05/22 01:04:31;;;;;;;1.39;0.50;;;;;;;;;;378909;139;865409;-63
2022/05/22 01:05:33;;;;;;;3.23;1.03;;;;;;;;;;376535;138;857340;-62
2022/05/22 01:06:35;;;;;;;2.31;0.50;;;;;;;;;;372223;141;859510;-61
2022/05/22 01:07:36;;;;;;;2.55;0.57;;;;;;;;;;372990;141;857702;-60
2022/05/22 01:08:39;;;;;;;1.03;0.39;;;;;;;;;;372067;141;858128;-60
2022/05/22 01:09:40;;;;;;;1.35;0.52;;;;;;;;;;372052;141;860154;-62
2022/05/22 01:10:44;;;;;;;2.96;0.64;;;;;;;;;;372311;142;858936;-62
2022/05/22 01:11:45;;;;;;;4.29;0.57;;;;;;;;;;370678;141;858183;-63
2022/05/22 01:12:47;;;;;;;2.15;0.54;;;;;;;;;;372470;141;858040;-62
2022/05/22 01:13:52;;;;;;;6.38;0.54;;;;;;;;;;371829;143;865023;-60
2022/05/22 01:14:54;;;;;;;3.48;0.66;;;;;;;;;;365122;144;864627;-60
2022/05/22 01:15:55;;;;;;;3.94;1.46;;;;;;;;;;365527;144;857132;-61
2022/05/22 01:17:03;;;;;;;3.20;0.43;;;;;;;;;;371772;141;858720;-60
2022/05/22 01:18:05;;;;;;;2.52;0.67;;;;;;;;;;371119;141;864410;-61
2022/05/22 01:19:12;;;;;;;3.98;0.77;;;;;;;;;;371683;141;856293;-60
2022/05/22 01:20:15;;;;;;;0.95;0.38;;;;;;;;;;370965;143;859449;-61
2022/05/22 01:21:19;;;;;;;2.46;0.37;;;;;;;;;;373116;141;858214;-60
2022/05/22 01:22:20;;;;;;;4.70;0.73;;;;;;;;;;371715;141;864907;-60
2022/05/22 01:23:22;;;;;;;1.07;0.51;;;;;;;;;;371713;143;859064;-61
2022/05/22 01:24:23;;;;;;;1.73;0.50;;;;;;;;;;371867;142;857253;-60
2022/05/22 01:25:25;;;;;;;2.96;0.50;;;;;;;;;;371424;141;864776;-60
2022/05/22 01:26:27;;;;;;;5.88;0.44;;;;;;;;;;371571;141;857180;-61
2022/05/22 01:27:29;;;;;;;4.22;1.70;;;;;;;;;;371443;143;864360;-60
2022/05/22 01:28:30;;;;;;;1.12;0.61;;;;;;;;;;372449;143;857289;-61
2022/05/22 01:29:32;;;;;;;2.27;0.51;;;;;;;;;;371225;141;857277;-60
2022/05/22 01:30:33;;;;;;;0.90;0.59;;;;;;;;;;371842;141;860047;-62
2022/05/22 01:31:35;;;;;;;3.82;0.75;;;;;;;;;;371324;141;857209;-60
2022/05/22 01:32:37;;;;;;;5.35;0.70;;;;;;;;;;372394;141;857219;-60
2022/05/22 01:33:39;;;;;;;0.89;0.54;;;;;;;;;;372447;141;857262;-60
2022/05/22 01:34:40;;;;;;;3.19;0.61;;;;;;;;;;371756;141;857224;-61
2022/05/22 01:35:42;;;;;;;2.31;0.58;;;;;;;;;;371640;141;864935;-59
2022/05/22 01:36:44;;;;;;;1.07;0.38;;;;;;;;;;371718;141;866204;-59
2022/05/22 01:37:45;;;;;;;2.03;0.51;;;;;;;;;;371386;141;866452;-60
2022/05/22 01:38:47;;;;;;;1.45;0.41;;;;;;;;;;371549;141;858276;-61
2022/05/22 01:39:49;;;;;;;2.84;0.59;;;;;;;;;;371530;143;857408;-60
2022/05/22 01:40:50;;;;;;;1.03;0.34;;;;;;;;;;371859;141;858307;-61
2022/05/22 01:41:52;;;;;;;1.44;0.44;;;;;;;;;;371401;141;856386;-61
2022/05/22 01:42:54;;;;;;;1.94;0.40;;;;;;;;;;371929;141;867063;-59
2022/05/22 01:43:55;;;;;;;2.18;0.40;;;;;;;;;;371874;141;858840;-59
2022/05/22 01:44:57;;;;;;;0.99;0.48;;;;;;;;;;371385;141;857182;-60
2022/05/22 01:45:58;;;;;;;1.59;0.45;;;;;;;;;;371479;141;857122;-60
2022/05/22 01:47:00;;;;;;;3.17;0.60;;;;;;;;;;372017;142;857344;-61
2022/05/22 01:48:02;;;;;;;0.64;0.41;;;;;;;;;;371976;141;857317;-60
2022/05/22 01:49:03;;;;;;;1.79;0.46;;;;;;;;;;370985;142;864830;-61
2022/05/22 01:50:06;;;;;;;5.25;0.51;;;;;;;;;;371922;143;857308;-59
2022/05/22 01:51:07;;;;;;;2.36;0.59;;;;;;;;;;372144;141;857315;-61
2022/05/22 01:52:09;;;;;;;1.76;0.66;;;;;;;;;;366219;140;855797;-61
2022/05/22 01:53:11;;;;;;;1.69;0.48;;;;;;;;;;351421;148;864804;-61
2022/05/22 01:54:12;;;;;;;1.96;0.44;;;;;;;;;;350743;150;864872;-59
2022/05/22 01:55:13;;;;;;;4.50;0.50;;;;;;;;;;344545;153;857823;-59
2022/05/22 01:56:15;;;;;;;1.74;0.50;;;;;;;;;;351445;150;857342;-60
2022/05/22 01:57:17;;;;;;;3.43;0.59;;;;;;;;;;353318;150;857226;-60
2022/05/22 01:58:18;;;;;;;0.71;0.40;;;;;;;;;;351403;148;857222;-64
2022/05/22 01:59:20;;;;;;;1.09;0.34;;;;;;;;;;351957;150;859062;-60
2022/05/22 02:00:23;;;;;;;3.91;0.62;;;;;;;;;;351374;150;858874;-60
2022/05/22 02:01:25;;;;;;;2.33;0.44;;;;;;;;;;351361;150;857352;-61
2022/05/22 02:02:27;;;;;;;1.63;0.55;;;;;;;;;;350536;150;857465;-61
2022/05/22 02:03:28;;;;;;;1.26;0.31;;;;;;;;;;349670;148;857224;-61
2022/05/22 02:04:30;;;;;;;3.20;0.41;;;;;;;;;;349923;150;857448;-61
2022/05/22 02:05:32;;;;;;;2.74;0.40;;;;;;;;;;350192;150;865640;-62
2022/05/22 02:06:34;;;;;;;0.99;0.47;;;;;;;;;;349873;150;857796;-61
2022/05/22 02:08:55;;;;;;;1.89;0.50;;;;;;;;;;350655;150;857256;-61
2022/05/22 02:09:57;;;;;;;0.82;0.49;;;;;;;;;;349009;150;859800;-62
2022/05/22 02:10:59;;;;;;;1.12;0.59;;;;;;;;;;350037;150;866711;-61
2022/05/22 02:12:04;;;;;;;0.95;0.41;;;;;;;;;;349957;150;867082;-60
2022/05/22 02:13:07;;;;;;;1.89;0.45;;;;;;;;;;349335;150;864892;-59
2022/05/22 02:14:08;;;;;;;4.91;0.60;;;;;;;;;;350267;150;859961;-59
2022/05/22 02:15:10;;;;;;;1.92;0.59;;;;;;;;;;349611;150;858966;-61
2022/05/22 02:16:14;;;;;;;2.81;0.59;;;;;;;;;;350875;150;857390;-60
2022/05/22 02:17:15;;;;;;;2.16;0.52;;;;;;;;;;349524;150;858203;-59
2022/05/22 02:18:17;;;;;;;2.27;0.66;;;;;;;;;;349710;150;864883;-59
2022/05/22 02:19:18;;;;;;;0.74;0.46;;;;;;;;;;350932;150;859104;-60
2022/05/22 02:20:20;;;;;;;7.01;0.70;;;;;;;;;;350104;150;866155;-60
2022/05/22 02:21:23;;;;;;;1.67;0.40;;;;;;;;;;350563;150;864981;-59
2022/05/22 02:22:25;;;;;;;2.07;0.51;;;;;;;;;;350595;150;858581;-60
2022/05/22 02:23:27;;;;;;;1.69;0.77;;;;;;;;;;349836;150;866615;-60
2022/05/22 02:24:28;;;;;;;3.61;0.51;;;;;;;;;;350335;150;857414;-60
2022/05/22 02:25:31;;;;;;;5.09;0.51;;;;;;;;;;348889;150;864883;-60
2022/05/22 02:26:32;;;;;;;1.19;0.50;;;;;;;;;;349782;150;857301;-60
2022/05/22 02:27:34;;;;;;;4.41;0.51;;;;;;;;;;350372;150;857873;-59
2022/05/22 02:28:35;;;;;;;2.02;0.61;;;;;;;;;;349466;150;857320;-58
2022/05/22 02:29:37;;;;;;;1.91;0.60;;;;;;;;;;350077;150;857218;-63
2022/05/22 02:30:39;;;;;;;2.02;0.50;;;;;;;;;;351008;150;857278;-60
2022/05/22 02:31:40;;;;;;;6.95;0.61;;;;;;;;;;349273;150;866301;-61
2022/05/22 02:32:42;;;;;;;1.39;0.62;;;;;;;;;;349972;150;859414;-61
2022/05/22 02:33:44;;;;;;;1.24;0.41;;;;;;;;;;349386;150;857270;-61
2022/05/22 02:34:45;;;;;;;1.42;0.69;;;;;;;;;;350265;150;863818;-60
2022/05/22 02:35:47;;;;;;;4.26;0.79;;;;;;;;;;350066;150;863843;-61
2022/05/22 02:36:49;;;;;;;1.84;0.81;;;;;;;;;;350528;150;856340;-61
2022/05/22 02:37:52;;;;;;;1.19;0.57;;;;;;;;;;350037;150;856953;-61
2022/05/22 02:38:53;;;;;;;3.91;0.58;;;;;;;;;;349372;150;857328;-60
2022/05/22 02:39:57;;;;;;;0.75;0.40;;;;;;;;;;350265;150;858263;-60
2022/05/22 02:40:58;;;;;;;1.21;0.47;;;;;;;;;;349848;150;865892;-59
2022/05/22 02:42:03;;;;;;;7.85;0.71;;;;;;;;;;350517;150;857707;-63
2022/05/22 02:43:05;;;;;;;2.57;0.69;;;;;;;;;;350984;150;864768;-59
2022/05/22 02:44:07;;;;;;;1.85;0.51;;;;;;;;;;349899;150;858593;-62
2022/05/22 02:45:09;;;;;;;1.48;0.39;;;;;;;;;;348975;150;857453;-59
2022/05/22 02:46:11;;;;;;;1.33;0.60;;;;;;;;;;350308;150;859554;-60
2022/05/22 02:47:13;;;;;;;0.81;0.53;;;;;;;;;;349629;150;856295;-63
2022/05/22 02:48:14;;;;;;;0.51;0.40;;;;;;;;;;350462;150;859062;-60
2022/05/22 02:49:16;;;;;;;3.72;0.70;;;;;;;;;;349769;147;858057;-60
2022/05/22 02:50:20;;;;;;;4.05;0.56;;;;;;;;;;350723;150;857294;-63
2022/05/22 02:51:22;;;;;;;2.52;0.56;;;;;;;;;;350629;150;864438;-60
2022/05/22 02:52:23;;;;;;;3.20;0.81;;;;;;;;;;349173;150;857212;-61
2022/05/22 02:53:25;;;;;;;2.89;0.65;;;;;;;;;;350925;150;865051;-60
2022/05/22 02:54:26;;;;;;;3.54;0.68;;;;;;;;;;348117;151;857332;-61
2022/05/22 02:55:28;;;;;;;0.83;0.50;;;;;;;;;;350562;150;857309;-60
2022/05/22 02:56:30;;;;;;;3.06;0.55;;;;;;;;;;344079;153;857067;-60
2022/05/22 02:57:32;;;;;;;4.89;0.62;;;;;;;;;;344301;153;857365;-61
2022/05/22 02:58:33;;;;;;;1.63;0.62;;;;;;;;;;351350;150;857239;-60
2022/05/22 02:59:35;;;;;;;1.59;0.66;;;;;;;;;;350602;150;857775;-60
2022/05/22 03:00:38;;;;;;;4.74;0.68;;;;;;;;;;351540;150;857219;-60
2022/05/22 03:01:40;;;;;;;3.46;0.59;;;;;;;;;;351684;150;866113;-60
2022/05/22 03:02:42;;;;;;;2.92;0.68;;;;;;;;;;349897;150;856220;-61
2022/05/22 03:03:43;;;;;;;1.38;0.53;;;;;;;;;;350343;150;867711;-59
2022/05/22 03:04:45;;;;;;;1.56;0.47;;;;;;;;;;350676;150;859977;-61
2022/05/22 03:07:07;;;;;;;;;;;;;;;;;;351048;151;856630;-59
2022/05/22 03:08:09;;;;;;;2.38;0.56;;;;;;;;;;347254;151;857473;-60
2022/05/22 03:09:11;;;;;;;2.56;0.54;;;;;;;;;;350426;151;859198;-60
2022/05/22 03:10:14;;;;;;;3.08;0.64;;;;;;;;;;348858;151;859282;-60
2022/05/22 03:11:15;;;;;;;3.43;0.67;;;;;;;;;;348455;151;856967;-61
2022/05/22 03:12:17;;;;;;;2.16;0.68;;;;;;;;;;350132;150;864913;-60
2022/05/22 03:13:19;;;;;;;5.25;0.54;;;;;;;;;;353400;150;857224;-61
2022/05/22 03:14:21;;;;;;;5.21;0.89;;;;;;;;;;349755;150;857729;-61
2022/05/22 03:15:23;;;;;;;3.66;1.49;;;;;;;;;;350925;150;858724;-62
2022/05/22 03:16:24;;;;;;;3.02;0.49;;;;;;;;;;352142;150;858553;-63
2022/05/22 03:17:26;;;;;;;1.21;0.76;;;;;;;;;;350427;150;857232;-61
2022/05/22 03:18:27;;;;;;;1.80;0.63;;;;;;;;;;350326;150;857212;-59
2022/05/22 03:19:29;;;;;;;2.42;0.80;;;;;;;;;;347434;151;857367;-60
2022/05/22 03:20:30;;;;;;;2.39;0.69;;;;;;;;;;346787;151;859065;-60
2022/05/22 03:24:07;;;;;;;5.04;0.90;;;;;;;13.71;53.31;98469.22;377629;139;880517;-61
2022/05/22 03:25:09;;;;;;;1.55;0.61;;;;;;;13.59;53.64;98475.79;369171;141;857250;-61
2022/05/22 03:26:13;;;;;;;8.38;0.94;;;;;;;13.54;53.65;98471.72;369504;144;857803;-60
2022/05/22 03:27:16;;;;;;;2.44;0.77;;;;;;;13.30;54.29;98469.25;369167;142;865567;-60
2022/05/22 03:28:18;;;;;;;1.97;0.78;;;;;;;13.30;54.66;98461.45;370992;141;857454;-60
2022/05/22 03:29:20;;;;;;;4.01;0.81;;;;;;;13.37;54.27;98459.41;370032;142;859681;-61
2022/05/22 03:30:22;;;;;;;3.49;1.37;;;;;;;13.45;54.22;98467.75;370516;142;860318;-60
2022/05/22 03:31:23;;;;;;;3.53;0.89;;;;;;;;;;369160;142;856478;-60
2022/05/22 03:32:26;;;;;;;4.60;0.94;;;;;;;;;;370787;141;864482;-60
2022/05/22 03:33:27;;;;;;;4.43;0.91;;;;;;;;;;371542;141;857257;-66
2022/05/22 03:34:29;;;;;;;3.11;0.94;;;;;;;;;;370341;141;857293;-64
2022/05/22 03:35:31;;;;;;;2.46;0.88;;;;;;;;;;369966;142;856707;-60
2022/05/22 03:36:32;;;;;;;1.73;0.77;;;;;;;;;;369952;141;863740;-59
2022/05/22 03:37:34;;;;;;;3.79;0.79;;;;;;;;;;370355;141;856293;-60
2022/05/22 03:38:35;;;;;;;3.65;0.80;;;;;;;;;;370396;141;856255;-62
2022/05/22 03:39:37;;;;;;;1.88;0.86;;;;;;;;;;371231;141;857215;-62
2022/05/22 03:40:40;;;;;;;3.71;0.94;;;;;;;;;;368861;144;857305;-62
2022/05/22 03:41:42;;;;;;;4.92;1.44;;;;;;;;;;369685;141;866660;-64
2022/05/22 03:42:44;;;;;;;1.91;0.90;;;;;;;;;;369364;141;857340;-58
2022/05/22 03:43:45;;;;;;;5.68;1.49;;;;;;;;;;371296;142;859222;-61
2022/05/22 03:44:47;;;;;;;2.09;0.77;;;;;;;;;;370823;141;857630;-60
2022/05/22 03:45:49;;;;;;;6.75;0.84;;;;;;;;;;369671;142;865696;-68
2022/05/22 03:46:51;;;;;;;3.32;0.89;;;;;;;;;;369089;142;865137;-61
2022/05/22 03:47:53;;;;;;;4.77;1.26;;;;;;;;;;369491;142;857213;-60
2022/05/22 03:48:54;;;;;;;5.60;0.97;;;;;;;;;;372045;141;857681;-62
2022/05/22 03:49:56;;;;;;;4.22;0.93;;;;;;;;;;370768;141;865533;-63
2022/05/22 03:50:58;;;;;;;4.43;1.10;;;;;;;;;;370385;142;865378;-61
2022/05/22 03:52:00;;;;;;;1.98;0.79;;;;;;;;;;369440;144;864546;-62
2022/05/22 03:53:01;;;;;;;2.83;1.55;;;;;;;;;;370893;141;857378;-61
2022/05/22 03:54:03;;;;;;;3.04;0.94;;;;;;;;;;369389;142;858180;-61
2022/05/22 03:55:09;;;;;;;4.89;1.04;;;;;;;;;;370194;144;858825;-63
2022/05/22 03:56:13;;;;;;;4.77;1.28;;;;;;;;;;369172;141;868166;-61
2022/05/22 03:57:14;;;;;;;4.92;0.90;;;;;;;;;;364107;144;857708;-61
2022/05/22 03:58:17;;;;;;;9.79;1.13;;;;;;;;;;363975;145;864441;-60
2022/05/22 03:59:19;;;;;;;3.32;0.99;;;;;;;;;;369440;141;857202;-63
2022/05/22 04:00:21;;;;;;;4.46;1.16;;;;;;;;;;369236;142;858155;-59
2022/05/22 04:01:23;;;;;;;3.23;1.13;;;;;;;;;;370288;142;863505;-62
2022/05/22 04:02:25;;;;;;;1.51;0.81;;;;;;;;;;371328;142;863976;-64
2022/05/22 04:03:27;;;;;;;2.36;1.10;;;;;;;;;;369485;141;856099;-60
2022/05/22 04:04:28;;;;;;;1.97;0.93;;;;;;;;;;369350;144;856140;-59
2022/05/22 04:05:30;;;;;;;1.72;0.89;;;;;;;;;;370665;141;863683;-66
2022/05/22 04:06:32;;;;;;;1.53;0.88;;;;;;;;;;369435;142;864034;-59
2022/05/22 04:07:41;;;;;;;1.34;0.71;;;;;;;;;;370174;142;856996;-60
2022/05/22 04:08:43;;;;;;;2.54;1.03;;;;;;;;;;370238;144;856335;-59
2022/05/22 04:09:45;;;;;;;2.44;1.02;;;;;;;;;;364254;145;856125;-58
2022/05/22 04:10:47;;;;;;;3.06;0.80;;;;;;;;;;363468;144;864897;-61
2022/05/22 04:11:49;;;;;;;3.99;0.97;;;;;;;;;;369419;141;866114;-57
2022/05/22 04:12:50;;;;;;;2.14;1.08;;;;;;;;;;369298;144;856743;-56
2022/05/22 04:13:52;;;;;;;3.04;0.78;;;;;;;;;;370100;142;856338;-59
2022/05/22 04:14:54;;;;;;;3.75;1.16;;;;;;;;;;369307;142;856267;-55
2022/05/22 04:15:55;;;;;;;1.13;0.60;;;;;;;;;;368910;142;863677;-55
2022/05/22 04:16:57;;;;;;;1.66;0.81;;;;;;;;;;370389;141;863956;-56
2022/05/22 04:17:58;;;;;;;1.61;0.71;;;;;;;;;;369999;141;856837;-57
2022/05/22 04:19:00;;;;;;;3.24;0.88;;;;;;;;;;370047;142;857048;-58
2022/05/22 04:20:01;;;;;;;2.46;1.04;;;;;;;;;;369590;142;856330;-58
2022/05/22 04:21:03;;;;;;;3.06;0.96;;;;;;;;;;370988;141;857499;-56
2022/05/22 04:22:05;;;;;;;1.88;0.84;;;;;;;;;;369800;142;856394;-58
2022/05/22 04:25:53;;;;;;;3.07;0.81;;;;;;;;;;361775;145;857050;-57
2022/05/22 04:26:54;;;;;;;2.46;0.90;;;;;;;;;;357210;148;856369;-58
2022/05/22 04:27:56;;;;;;;0.99;0.69;;;;;;;;;;356120;148;856273;-58
2022/05/22 04:28:57;;;;;;;2.29;0.85;;;;;;;;;;355936;148;857637;-58
2022/05/22 04:29:59;;;;;;;2.20;0.81;;;;;;;;;;354415;150;866840;-58
2022/05/22 04:31:03;;;;;;;2.31;0.79;;;;;;;;;;357262;148;860948;-59
2022/05/22 04:32:04;;;;;;;2.22;0.94;;;;;;;;;;357295;148;865368;-57
2022/05/22 04:33:06;;;;;;;5.88;0.98;;;;;;;;;;361808;148;857351;-59
2022/05/22 04:34:07;;;;;;;5.14;0.94;;;;;;;;;;357612;148;864765;-58
2022/05/22 04:35:09;;;;;;;4.16;0.94;;;;;;;;;;356790;148;857780;-59
2022/05/22 04:36:12;;;;;;;5.69;1.18;;;;;;;;;;361215;145;857281;-56
2022/05/22 04:37:14;;;;;;;2.13;1.07;;;;;;;;;;360845;148;857240;-57
2022/05/22 04:38:16;;;;;;;1.44;0.83;;;;;;;;;;361925;145;857221;-56
2022/05/22 04:39:17;;;;;;;9.30;0.89;;;;;;;;;;356307;148;865561;-57
2022/05/22 04:40:19;;;;;;;2.40;1.03;;;;;;;;;;357038;148;864809;-57
2022/05/22 04:41:21;;;;;;;2.75;0.73;;;;;;;;;;356647;148;864879;-57
2022/05/22 04:42:23;;;;;;;1.85;0.76;;;;;;;;;;361783;146;857162;-58
2022/05/22 04:43:25;;;;;;;2.53;0.86;;;;;;;;;;359054;146;864455;-58
2022/05/22 04:44:27;;;;;;;4.45;1.05;;;;;;;;;;358823;147;864873;-58
2022/05/22 04:45:28;;;;;;;3.07;0.76;;;;;;;;;;354253;151;857192;-60
2022/05/22 04:46:30;;;;;;;3.87;0.96;;;;;;;;;;354734;150;857211;-58
2022/05/22 04:47:33;;;;;;;2.10;1.04;;;;;;;;;;355423;148;863515;-57
2022/05/22 04:48:35;;;;;;;3.40;0.91;;;;;;;;;;361401;145;859788;-58
2022/05/22 04:49:56;;;;;;;1.36;0.76;;;;;;;;;;357798;147;858900;-56
2022/05/22 04:50:58;;;;;;;8.81;0.93;;;;;;;;;;367825;143;857280;-59
2022/05/22 04:52:00;;;;;;;4.26;0.75;;;;;;;;;;380520;139;857376;-57
2022/05/22 04:53:01;;;;;;;4.09;0.70;;;;;;;;;;379393;139;865001;-59
2022/05/22 04:54:03;;;;;;;7.04;0.92;;;;;;;;;;382059;139;865067;-57
2022/05/22 04:55:05;;;;;;;2.41;0.81;;;;;;;;;;380220;139;857422;-57
2022/05/22 04:56:07;;;;;;;4.41;0.91;;;;;;;;;;381890;139;860320;-57
2022/05/22 04:57:09;;;;;;;2.09;0.70;;;;;;;;;;380638;139;857323;-57
2022/05/22 04:58:11;;;;;;;6.99;1.54;;;;;;;;;;380846;139;858832;-59
2022/05/22 04:59:13;;;;;;;2.02;0.78;;;;;;;;;;380869;139;857493;-59
2022/05/22 05:00:16;;;;;;;2.09;0.70;;;;;;;;;;380950;140;858899;-58
2022/05/22 05:01:18;;;;;;;5.58;0.80;;;;;;;;;;380459;139;857161;-59
2022/05/22 05:02:19;;;;;;;3.69;0.82;;;;;;;;;;380982;139;864636;-59
2022/05/22 05:03:21;;;;;;;1.90;0.93;;;;;;;;;;380346;140;857032;-58
2022/05/22 05:04:22;;;;;;;2.24;0.87;;;;;;;;;;380760;139;857251;-58
2022/05/22 05:05:24;;;;;;;4.46;0.64;;;;;;;;;;380632;140;857668;-59
2022/05/22 05:06:30;;;;;;;3.68;1.14;;;;;;;;;;380799;138;857230;-62
2022/05/22 05:07:32;;;;;;;1.78;0.65;;;;;;;;;;380808;139;864408;-60
2022/05/22 05:09:45;;;;;;;2.43;0.89;;;;;;;;;;376061;135;857073;-70
2022/05/22 05:10:46;;;;;;;1.33;0.70;;;;;;;;;;374390;140;857104;-68
2022/05/22 05:11:48;;;;;;;3.12;0.83;;;;;;;;;;372875;140;858773;-67
2022/05/22 05:12:50;;;;;;;3.64;0.83;;;;;;;;;;374081;141;865801;-68
2022/05/22 05:13:51;;;;;;;2.19;0.65;;;;;;;;;;374070;140;858991;-70
2022/05/22 05:14:53;;;;;;;0.57;0.40;;;;;;;;;;374254;141;865297;-69
2022/05/22 05:15:59;;;;;;;2.69;0.81;;;;;;;;;;373892;141;857143;-70
2022/05/22 05:17:00;;;;;;;2.71;1.07;;;;;;;;;;374169;141;856097;-69
2022/05/22 05:18:02;;;;;;;1.79;0.71;;;;;;;;;;374408;141;856272;-69
2022/05/22 05:19:04;;;;;;;2.49;0.77;;;;;;;;;;374375;141;858364;-69
2022/05/22 05:20:07;;;;;;;1.91;0.60;;;;;;;;;;373937;141;864947;-71
2022/05/22 05:21:10;;;;;;;5.01;0.70;;;;;;;;;;375614;141;856545;-70
2022/05/22 05:22:11;;;;;;;1.79;0.67;;;;;;;;;;374034;140;856233;-69
2022/05/22 05:23:13;;;;;;;2.05;0.80;;;;;;;;;;372580;141;864888;-70
2022/05/22 05:24:14;;;;;;;2.86;0.69;;;;;;;;;;373985;140;857126;-69
2022/05/22 05:25:16;;;;;;;1.73;0.54;;;;;;;;;;360030;146;864735;-69
2022/05/22 05:26:20;;;;;;;1.91;0.59;;;;;;;;;;366827;144;857216;-69
2022/05/22 05:27:26;;;;;;;1.73;0.69;;;;;;;;;;366166;143;857318;-70
2022/05/22 05:28:27;;;;;;;1.98;0.53;;;;;;;;;;365892;143;858955;-70
2022/05/22 05:29:29;;;;;;;1.66;0.55;;;;;;;;;;368653;141;857703;-71
2022/05/22 05:30:31;;;;;;;4.91;0.63;;;;;;;;;;368698;142;858955;-70
2022/05/22 05:31:33;;;;;;;6.46;0.63;;;;;;;;;;373077;141;864194;-69
2022/05/22 05:32:34;;;;;;;3.96;0.64;;;;;;;;;;371286;141;865521;-69
2022/05/22 05:33:37;;;;;;;2.14;0.79;;;;;;;;;;371653;142;856225;-69
2022/05/22 05:34:38;;;;;;;1.95;0.71;;;;;;;;;;370562;141;857838;-70
2022/05/22 05:35:40;;;;;;;1.11;0.60;;;;;;;;;;371362;141;863711;-70
2022/05/22 05:36:42;;;;;;;2.20;0.60;;;;;;;;;;374444;141;863622;-72
2022/05/22 05:37:44;;;;;;;2.37;0.89;;;;;;;;;;373172;141;857208;-69
2022/05/22 05:38:45;;;;;;;7.40;1.01;;;;;;;;;;372772;141;864731;-69
2022/05/22 05:39:47;;;;;;;2.77;0.97;;;;;;;;;;372419;142;866361;-72
2022/05/22 05:40:49;;;;;;;2.87;0.47;;;;;;;;;;374496;141;865550;-71
2022/05/22 05:41:52;;;;;;;0.99;0.48;;;;;;;;;;372155;141;858200;-70
2022/05/22 05:42:54;;;;;;;3.99;0.71;;;;;;;;;;372106;141;859332;-71
2022/05/22 05:43:56;;;;;;;4.40;0.79;;;;;;;;;;370804;141;859507;-70
2022/05/22 05:44:57;;;;;;;1.45;0.41;;;;;;;;;;372787;141;857623;-70
2022/05/22 05:45:59;;;;;;;2.66;0.70;;;;;;;;;;371930;141;857305;-70
2022/05/22 05:47:01;;;;;;;3.45;0.48;;;;;;;;;;371587;142;857296;-71
2022/05/22 05:48:03;;;;;;;3.47;0.70;;;;;;;;;;371378;142;866671;-70
2022/05/22 05:49:05;;;;;;;3.25;0.49;;;;;;;;;;371505;141;858359;-70
2022/05/22 05:50:09;;;;;;;1.37;0.61;;;;;;;;;;365397;145;859274;-70
2022/05/22 05:51:14;;;;;;;4.71;0.78;;;;;;;;;;365972;141;864944;-72
2022/05/22 05:52:16;;;;;;;4.07;0.57;;;;;;;;;;373413;141;864366;-72
2022/05/22 05:53:17;;;;;;;1.83;0.81;;;;;;;;;;372909;143;857645;-72
2022/05/22 05:54:19;;;;;;;1.89;0.81;;;;;;;;;;372152;141;859203;-71
2022/05/22 05:55:20;;;;;;;1.39;0.54;;;;;;;;;;370697;142;858573;-69
2022/05/22 05:56:22;;;;;;;3.25;0.82;;;;;;;;;;370206;141;857320;-72
2022/05/22 05:57:24;;;;;;;3.05;0.69;;;;;;;;;;371757;142;857208;-73
2022/05/22 05:58:25;;;;;;;1.90;0.66;;;;;;;;;;371368;141;857225;-70
2022/05/22 05:59:27;;;;;;;3.62;0.73;;;;;;;;;;370905;142;857116;-71
2022/05/22 06:00:29;;;;;;;1.21;0.75;;;;;;;;;;371289;142;857137;-70
2022/05/22 06:01:31;;;;;;;1.48;0.59;;;;;;;;;;369702;141;859040;-69
2022/05/22 06:02:33;;;;;;;2.10;0.69;;;;;;;;;;371906;142;859535;-69
2022/05/22 06:03:35;;;;;;;2.06;0.75;;;;;;;;;;371948;141;858981;-70
2022/05/22 06:04:36;;;;;;;1.10;0.61;;;;;;;;;;370094;142;858362;-69
2022/05/22 06:05:39;;;;;;;3.35;0.60;;;;;;;;;;372053;143;865417;-69
2022/05/22 06:06:41;;;;;;;0.94;0.58;;;;;;;;;;372038;143;858754;-69
2022/05/22 06:07:42;;;;;;;2.66;0.71;;;;;;;;;;372945;142;857159;-69
2022/05/22 06:08:44;;;;;;;4.53;0.87;;;;;;;;;;373314;142;857248;-72
2022/05/22 06:09:46;;;;;;;1.00;0.70;;;;;;;;;;373113;142;866347;-69
2022/05/22 06:10:47;;;;;;;4.76;0.64;;;;;;;;;;372805;142;859052;-70
2022/05/22 06:11:49;;;;;;;1.90;0.56;;;;;;;;;;371901;142;865382;-71
2022/05/22 06:12:51;;;;;;;1.69;0.47;;;;;;;;;;371858;142;864814;-71
2022/05/22 06:13:52;;;;;;;1.27;0.58;;;;;;;;;;370804;143;857170;-70
2022/05/22 06:14:54;;;;;;;1.22;0.60;;;;;;;;;;372681;142;857212;-70
2022/05/22 06:15:55;;;;;;;1.48;0.52;;;;;;;;;;372319;142;857093;-70